< < Back
Terminal Aerodrome Forecast


Current Version              Previous Versions:   1  2  3  4  5  6  7  8  9  

Terminal Aerodrome Forecast

686
FTUS42 KFFC 170300 AAA
TAFFTY
TAF AMD
KFTY 170336Z 1703/1724 10006KT P6SM SKC
     FM171200 08010KT P6SM SCT250
     FM171600 10010G20KT P6SM SCT040 BKN250=



Latest METAR

674
SAUS70 KWBC 171500 RRC
MTRFTY
METAR KFTY 171453Z 07013G20KT 10SM CLR 12/M01 A3042 RMK AO2 SLP301
T01221006 51007


USA.gov is the U.S. government's official web portal to all federal, state and local government web resources and services.